createdAt,value
2022-10-26T00:01:56.370Z,101223.69
2022-10-26T00:04:22.938Z,101225.56
2022-10-26T00:06:49.496Z,101223.09
2022-10-26T00:09:15.901Z,101220.66
2022-10-26T00:11:42.185Z,101224.16
2022-10-26T00:14:08.558Z,101226.06
2022-10-26T00:16:34.901Z,101227.31
2022-10-26T00:19:01.196Z,101226.53
2022-10-26T00:21:27.771Z,101237.34
2022-10-26T00:23:54.006Z,101233.22
2022-10-26T00:26:20.762Z,101229.13
2022-10-26T00:28:47.185Z,101234.53
2022-10-26T00:31:13.524Z,101246.16
2022-10-26T00:33:40.028Z,101239.94
2022-10-26T00:36:06.533Z,101242.03
2022-10-26T00:38:32.825Z,101242.88
2022-10-26T00:40:59.210Z,101236.63
2022-10-26T00:43:25.599Z,101243.94
2022-10-26T00:45:51.856Z,101245.22
2022-10-26T00:48:19.092Z,101255.56
2022-10-26T00:50:45.424Z,101254.16
2022-10-26T00:53:11.678Z,101256.03
2022-10-26T00:55:37.904Z,101252.75
2022-10-26T00:58:04.220Z,101253.81
2022-10-26T01:00:30.536Z,101246.50
2022-10-26T01:02:57.142Z,101254.38
2022-10-26T01:05:23.494Z,101260.53
2022-10-26T01:07:50.194Z,101254.03
2022-10-26T01:10:16.809Z,101264.25
2022-10-26T01:12:43.097Z,101258.84
2022-10-26T01:15:09.413Z,101262.97
2022-10-26T01:17:36.881Z,101257.22
2022-10-26T01:20:03.146Z,101261.22
2022-10-26T01:22:29.819Z,101253.09
2022-10-26T01:24:56.149Z,101245.00
2022-10-26T01:27:22.449Z,101246.06
2022-10-26T01:29:48.784Z,101249.00
2022-10-26T01:32:15.067Z,101250.06
2022-10-26T01:34:41.536Z,101249.22
2022-10-26T01:37:07.814Z,101246.53
2022-10-26T01:39:34.208Z,101249.22
2022-10-26T01:42:00.627Z,101247.59
2022-10-26T01:44:26.906Z,101244.06
2022-10-26T01:46:53.352Z,101238.88
2022-10-26T01:49:19.608Z,101237.03
2022-10-26T01:51:45.841Z,101236.19
2022-10-26T01:54:12.149Z,101236.44
2022-10-26T01:56:38.543Z,101235.03
2022-10-26T01:59:05.109Z,101236.31
2022-10-26T02:01:31.482Z,101233.16
2022-10-26T02:03:57.983Z,101235.03
2022-10-26T02:06:24.545Z,101233.38
2022-10-26T02:08:51.217Z,101234.44
2022-10-26T02:11:18.326Z,101236.06
2022-10-26T02:13:44.591Z,101239.84
2022-10-26T02:16:11.126Z,101240.91
2022-10-26T02:18:37.613Z,101242.75
2022-10-26T02:21:03.897Z,101229.69
2022-10-26T02:23:30.237Z,101236.78
2022-10-26T02:25:56.476Z,101232.41
2022-10-26T02:28:22.782Z,101237.00
2022-10-26T02:30:49.307Z,101231.00
2022-10-26T02:33:15.544Z,101235.38
2022-10-26T02:35:41.949Z,101233.47
2022-10-26T02:38:08.433Z,101229.97
2022-10-26T02:40:34.724Z,101233.97
2022-10-26T02:43:01.037Z,101229.38
2022-10-26T02:45:27.452Z,101219.63
2022-10-26T02:47:53.713Z,101225.03
2022-10-26T02:50:20.363Z,101231.50
2022-10-26T02:52:46.804Z,101229.81
2022-10-26T02:55:13.343Z,101230.66
2022-10-26T02:57:39.576Z,101227.97
2022-10-26T03:00:05.942Z,101228.19
2022-10-26T03:02:32.799Z,101229.25
2022-10-26T03:04:59.189Z,101229.25
2022-10-26T03:07:25.553Z,101231.13
2022-10-26T03:09:51.945Z,101232.19
2022-10-26T03:12:18.237Z,101236.28
2022-10-26T03:14:44.612Z,101233.59
2022-10-26T03:17:12.239Z,101232.78
2022-10-26T03:19:38.502Z,101227.84
2022-10-26T03:22:04.749Z,101232.19
2022-10-26T03:24:31.080Z,101228.69
2022-10-26T03:26:59.674Z,101225.38
2022-10-26T03:29:28.389Z,101235.34
2022-10-26T03:31:54.801Z,101241.59
2022-10-26T03:34:21.124Z,101239.94
2022-10-26T03:36:47.409Z,101236.19
2022-10-26T03:39:13.644Z,101240.19
2022-10-26T03:41:39.942Z,101244.75
2022-10-26T03:44:06.405Z,101245.34
2022-10-26T03:46:34.076Z,101244.28
2022-10-26T03:49:00.389Z,101254.50
2022-10-26T03:51:26.725Z,101248.06
2022-10-26T03:53:53.147Z,101251.81
2022-10-26T03:56:19.579Z,101247.69
2022-10-26T03:58:45.955Z,101243.56
2022-10-26T04:01:12.300Z,101241.69
2022-10-26T04:03:38.679Z,101241.47
2022-10-26T04:06:04.967Z,101247.09
2022-10-26T04:08:31.359Z,101243.56
2022-10-26T04:10:59.893Z,101241.69
2022-10-26T04:13:29.336Z,101234.91
2022-10-26T04:15:56.520Z,101233.25
2022-10-26T04:18:22.854Z,101233.84
2022-10-26T04:20:49.240Z,101236.75
2022-10-26T04:23:15.660Z,101231.03
2022-10-26T04:25:42.873Z,101233.25
2022-10-26T04:28:09.380Z,101236.19
2022-10-26T04:30:35.877Z,101236.53
2022-10-26T04:33:02.164Z,101236.19
2022-10-26T04:35:28.518Z,101238.28
2022-10-26T04:37:54.792Z,101239.34
2022-10-26T04:40:21.212Z,101243.69
2022-10-26T04:42:47.891Z,101240.41
2022-10-26T04:45:14.702Z,101239.56
2022-10-26T04:47:41.136Z,101238.50
2022-10-26T04:50:07.550Z,101248.50
2022-10-26T04:52:33.780Z,101246.03
2022-10-26T04:55:00.148Z,101246.03
2022-10-26T04:57:26.684Z,101243.91
2022-10-26T04:59:52.999Z,101242.50
2022-10-26T05:02:19.347Z,101247.09
2022-10-26T05:04:46.254Z,101234.66
2022-10-26T05:07:12.517Z,101240.28
2022-10-26T05:09:38.779Z,101229.72
2022-10-26T05:12:05.085Z,101227.13
2022-10-26T05:14:31.376Z,101229.25
2022-10-26T05:16:57.731Z,101227.13
2022-10-26T05:19:23.978Z,101223.25
2022-10-26T05:21:50.677Z,101223.88
2022-10-26T05:24:16.959Z,101231.13
2022-10-26T05:26:43.301Z,101235.94
2022-10-26T05:29:09.730Z,101237.38
2022-10-26T05:31:36.037Z,101240.19
2022-10-26T05:34:02.350Z,101237.22
2022-10-26T05:36:28.779Z,101237.72
2022-10-26T05:38:55.151Z,101245.81
2022-10-26T05:41:21.699Z,101248.50
2022-10-26T05:43:47.997Z,101249.53
2022-10-26T05:48:53.973Z,101248.03
2022-10-26T05:51:20.418Z,101251.22
2022-10-26T05:53:46.721Z,101253.69
2022-10-26T05:56:13.212Z,101254.59
2022-10-26T05:58:39.554Z,101259.41
2022-10-26T06:01:05.887Z,101260.44
2022-10-26T06:03:32.198Z,101261.50
2022-10-26T06:05:59.395Z,101262.91
2022-10-26T06:08:27.155Z,101255.44
2022-10-26T06:10:53.482Z,101259.16
2022-10-26T06:13:19.760Z,101268.31
2022-10-26T06:15:46.069Z,101261.06
2022-10-26T06:18:12.388Z,101258.59
2022-10-26T06:20:39.299Z,101264.31
2022-10-26T06:23:06.485Z,101269.16
2022-10-26T06:25:32.833Z,101266.91
2022-10-26T06:27:59.184Z,101269.59
2022-10-26T06:30:25.575Z,101268.81
2022-10-26T06:33:01.082Z,101270.91
2022-10-26T06:35:32.483Z,101277.72
2022-10-26T06:37:58.891Z,101272.31
2022-10-26T06:40:25.135Z,101277.72
2022-10-26T06:42:51.409Z,101272.75
2022-10-26T06:45:17.706Z,101282.16
2022-10-26T06:47:44.252Z,101289.06
2022-10-26T06:50:10.571Z,101289.31
2022-10-26T06:52:37.175Z,101279.78
2022-10-26T06:55:03.465Z,101284.38
2022-10-26T06:57:29.705Z,101282.47
2022-10-26T06:59:56.141Z,101290.00
2022-10-26T07:02:22.463Z,101291.63
2022-10-26T07:04:48.829Z,101287.28
2022-10-26T07:07:15.205Z,101290.84
2022-10-26T07:09:41.925Z,101298.09
2022-10-26T07:12:08.208Z,101296.47
2022-10-26T07:14:34.484Z,101294.56
2022-10-26T07:17:00.816Z,101300.22
2022-10-26T07:19:27.123Z,101301.00
2022-10-26T07:21:53.748Z,101302.91
2022-10-26T07:24:20.004Z,101303.94
2022-10-26T07:26:46.383Z,101306.06
2022-10-26T07:29:12.693Z,101295.25
2022-10-26T07:31:39.252Z,101307.94
2022-10-26T07:34:05.836Z,101306.88
2022-10-26T07:36:32.178Z,101306.06
2022-10-26T07:38:58.486Z,101306.88
2022-10-26T07:41:24.785Z,101305.22
2022-10-26T07:43:51.125Z,101306.06
2022-10-26T07:46:17.609Z,101303.59
2022-10-26T07:51:11.118Z,101300.06
2022-10-26T07:53:37.684Z,101297.84
2022-10-26T07:56:04.595Z,101300.06
2022-10-26T07:58:31.419Z,101296.78
2022-10-26T08:00:57.685Z,101304.88
2022-10-26T08:03:23.913Z,101299.25
2022-10-26T08:05:50.230Z,101307.34
2022-10-26T08:08:16.518Z,101299.47
2022-10-26T08:10:42.828Z,101301.13
2022-10-26T08:13:09.129Z,101298.63
2022-10-26T08:15:35.662Z,101306.50
2022-10-26T08:18:02.661Z,101309.22
2022-10-26T08:20:29.005Z,101308.38
2022-10-26T08:22:55.660Z,101308.63
2022-10-26T08:25:22.129Z,101303.22
2022-10-26T08:27:48.749Z,101305.31
2022-10-26T08:30:15.258Z,101305.31
2022-10-26T08:32:41.776Z,101314.25
2022-10-26T08:35:08.086Z,101309.66
2022-10-26T08:37:34.426Z,101316.13
2022-10-26T08:40:03.123Z,101314.25
2022-10-26T08:42:29.921Z,101316.13
2022-10-26T08:44:56.181Z,101309.09
2022-10-26T08:47:22.430Z,101312.00
2022-10-26T08:49:48.942Z,101310.13
2022-10-26T08:52:15.359Z,101305.31
2022-10-26T08:54:41.585Z,101307.44
2022-10-26T08:57:07.957Z,101308.25
2022-10-26T08:59:34.221Z,101302.03
2022-10-26T09:02:00.553Z,101302.03
2022-10-26T09:04:26.873Z,101304.75
2022-10-26T09:06:53.222Z,101308.25
2022-10-26T09:09:19.555Z,101304.97
2022-10-26T09:14:30.051Z,101307.66
2022-10-26T09:16:57.078Z,101313.06
2022-10-26T09:19:23.616Z,101316.34
2022-10-26T09:24:46.998Z,101321.16
2022-10-26T09:27:13.834Z,101315.16
2022-10-26T09:29:40.076Z,101314.94
2022-10-26T09:32:06.592Z,101315.16
2022-10-26T09:34:33.417Z,101316.81
2022-10-26T09:37:00.066Z,101323.03
2022-10-26T09:39:26.572Z,101323.03
2022-10-26T09:41:53.037Z,101320.31
2022-10-26T09:44:19.352Z,101314.94
2022-10-26T09:46:45.800Z,101321.16
2022-10-26T09:49:12.081Z,101322.44
2022-10-26T09:51:38.439Z,101311.66
2022-10-26T09:54:05.086Z,101307.88
2022-10-26T10:01:48.870Z,101311.16
2022-10-26T10:04:15.208Z,101319.25
2022-10-26T10:12:03.177Z,101325.72
2022-10-26T10:14:29.424Z,101322.78
2022-10-26T10:16:55.805Z,101336.63
2022-10-26T10:19:22.077Z,101330.88
2022-10-26T10:21:48.556Z,101321.97
2022-10-26T10:24:14.862Z,101320.09
2022-10-26T10:26:41.234Z,101319.25
2022-10-26T10:29:08.658Z,101324.44
2022-10-26T10:31:35.026Z,101325.72
2022-10-26T10:34:01.904Z,101322.44
2022-10-26T10:36:28.244Z,101315.97
2022-10-26T10:38:54.618Z,101311.66
2022-10-26T10:41:21.204Z,101310.59
2022-10-26T10:43:47.578Z,101315.75
2022-10-26T10:46:13.798Z,101307.44
2022-10-26T10:48:40.202Z,101306.84
2022-10-26T10:51:06.601Z,101305.78
2022-10-26T10:53:32.892Z,101306.03
2022-10-26T10:55:59.169Z,101296.88
2022-10-26T10:58:25.787Z,101301.00
2022-10-26T11:00:52.433Z,101307.44
2022-10-26T11:03:23.272Z,101301.56
2022-10-26T11:05:52.211Z,101305.53
2022-10-26T11:08:18.501Z,101301.44
2022-10-26T11:10:44.867Z,101300.84
2022-10-26T11:15:47.241Z,101297.94
2022-10-26T11:18:13.745Z,101294.75
2022-10-26T11:20:40.317Z,101294.97
2022-10-26T11:23:06.606Z,101300.63
2022-10-26T11:25:33.100Z,101295.47
2022-10-26T11:27:59.925Z,101300.63
2022-10-26T11:30:26.226Z,101300.03
2022-10-26T11:32:52.823Z,101298.16
2022-10-26T11:35:19.427Z,101299.41
2022-10-26T11:37:46.042Z,101292.59
2022-10-26T11:40:12.357Z,101294.19
2022-10-26T11:42:38.661Z,101294.19
2022-10-26T11:45:04.921Z,101292.53
2022-10-26T11:47:31.485Z,101296.03
2022-10-26T11:49:58.065Z,101287.38
2022-10-26T11:52:24.405Z,101295.22
2022-10-26T12:00:01.237Z,101295.81
2022-10-26T12:02:27.854Z,101298.50
2022-10-26T12:04:54.265Z,101292.28
2022-10-26T12:07:20.874Z,101296.66
2022-10-26T12:09:47.221Z,101294.75
2022-10-26T12:12:13.668Z,101303.69
2022-10-26T12:14:40.179Z,101298.28
2022-10-26T12:17:06.451Z,101298.28
2022-10-26T12:19:33.034Z,101299.56
2022-10-26T12:21:59.813Z,101301.81
2022-10-26T12:24:26.404Z,101296.88
2022-10-26T12:26:52.673Z,101297.94
2022-10-26T12:29:19.234Z,101304.13
2022-10-26T12:31:46.152Z,101293.34
2022-10-26T12:34:12.493Z,101293.34
2022-10-26T12:36:38.776Z,101290.63
2022-10-26T12:39:05.140Z,101288.78
2022-10-26T12:43:58.441Z,101285.25
2022-10-26T12:46:24.778Z,101290.63
2022-10-26T12:48:52.336Z,101286.31
2022-10-26T12:51:18.987Z,101288.78
2022-10-26T12:56:18.689Z,101284.66
2022-10-26T12:58:45.229Z,101283.84
2022-10-26T13:01:11.544Z,101285.47
2022-10-26T13:03:38.051Z,101286.53
2022-10-26T13:06:04.460Z,101283.38
2022-10-26T13:08:30.765Z,101283.59
2022-10-26T13:10:57.064Z,101271.75
2022-10-26T13:13:23.366Z,101272.59
2022-10-26T13:15:49.937Z,101270.94
2022-10-26T13:18:16.213Z,101267.41
2022-10-26T13:20:42.630Z,101266.59
2022-10-26T13:23:08.957Z,101263.09
2022-10-26T13:25:35.285Z,101254.16
2022-10-26T13:28:01.602Z,101255.00
2022-10-26T13:30:27.850Z,101259.31
2022-10-26T13:32:54.214Z,101253.09
2022-10-26T13:35:20.508Z,101254.16
2022-10-26T13:37:47.340Z,101259.31
2022-10-26T13:40:14.202Z,101261.19
2022-10-26T13:42:40.607Z,101266.78
2022-10-26T13:45:07.219Z,101261.19
2022-10-26T13:47:34.210Z,101265.56
2022-10-26T13:50:00.559Z,101271.75
2022-10-26T13:52:27.013Z,101268.47
2022-10-26T13:54:53.405Z,101279.84
2022-10-26T13:57:19.622Z,101274.47
2022-10-26T13:59:45.876Z,101275.28
2022-10-26T14:02:12.206Z,101281.50
2022-10-26T14:04:38.746Z,101278.78
2022-10-26T14:07:05.308Z,101278.78
2022-10-26T14:09:31.640Z,101284.19
2022-10-26T14:11:58.104Z,101283.38
2022-10-26T14:14:24.476Z,101279.84
2022-10-26T14:16:50.775Z,101282.53
2022-10-26T14:19:17.101Z,101286.09
2022-10-26T14:21:43.461Z,101285.25
2022-10-26T14:24:09.756Z,101286.31
2022-10-26T14:26:36.210Z,101284.34
2022-10-26T14:29:02.562Z,101285.25
2022-10-26T14:31:28.871Z,101295.81
2022-10-26T14:33:55.240Z,101295.81
2022-10-26T14:36:21.585Z,101294.97
2022-10-26T14:38:47.976Z,101293.72
2022-10-26T14:41:14.301Z,101299.13
2022-10-26T14:43:40.597Z,101296.41
2022-10-26T14:46:06.911Z,101299.94
2022-10-26T14:48:33.258Z,101289.13
2022-10-26T14:50:59.569Z,101293.47
2022-10-26T14:53:25.886Z,101297.22
2022-10-26T14:55:52.209Z,101294.31
2022-10-26T14:58:18.518Z,101290.78
2022-10-26T15:00:44.939Z,101295.94
2022-10-26T15:03:11.213Z,101301.56
2022-10-26T15:05:37.581Z,101304.25
2022-10-26T15:08:03.915Z,101297.34
2022-10-26T15:10:30.326Z,101300.22
2022-10-26T15:12:56.586Z,101293.88
2022-10-26T15:15:23.252Z,101299.84
2022-10-26T15:17:50.145Z,101293.16
2022-10-26T15:20:16.562Z,101299.06
2022-10-26T15:22:42.837Z,101297.16
2022-10-26T15:25:09.112Z,101294.94
2022-10-26T15:27:35.469Z,101296.59
2022-10-26T15:30:01.733Z,101290.56
2022-10-26T15:32:27.991Z,101295.97
2022-10-26T15:34:54.302Z,101300.78
2022-10-26T15:37:20.670Z,101298.94
2022-10-26T15:39:47.716Z,101304.56
2022-10-26T15:42:13.986Z,101309.94
2022-10-26T15:44:40.400Z,101311.00
2022-10-26T15:47:08.873Z,101315.56
2022-10-26T15:49:35.327Z,101313.72
2022-10-26T15:52:01.601Z,101311.00
2022-10-26T15:54:28.108Z,101319.91
2022-10-26T15:56:54.466Z,101316.41
2022-10-26T15:59:20.752Z,101321.81
2022-10-26T16:01:47.129Z,101318.50
2022-10-26T16:04:13.691Z,101327.19
2022-10-26T16:06:40.286Z,101328.44
2022-10-26T16:09:07.066Z,101327.66
2022-10-26T16:11:33.793Z,101321.41
2022-10-26T16:14:02.838Z,101331.41
2022-10-26T16:16:30.384Z,101333.84
2022-10-26T16:19:11.873Z,101333.03
2022-10-26T16:21:42.920Z,101340.31
2022-10-26T16:24:09.315Z,101345.69
2022-10-26T16:26:35.556Z,101344.28
2022-10-26T16:29:01.785Z,101352.38
2022-10-26T16:31:28.051Z,101350.03
2022-10-26T16:33:54.503Z,101342.66
2022-10-26T16:36:20.781Z,101348.63
2022-10-26T16:38:47.245Z,101341.59
2022-10-26T16:41:14.211Z,101350.13
2022-10-26T16:43:41.081Z,101351.81
2022-10-26T16:46:07.675Z,101357.19
2022-10-26T16:48:33.993Z,101360.13
2022-10-26T16:51:00.294Z,101357.66
2022-10-26T16:53:26.781Z,101352.25
2022-10-26T16:55:53.202Z,101353.88
2022-10-26T16:58:19.624Z,101367.59
2022-10-26T17:00:45.869Z,101365.97
2022-10-26T17:03:12.240Z,101366.81
2022-10-26T17:05:38.593Z,101365.75
2022-10-26T17:08:05.808Z,101361.41
2022-10-26T17:10:32.126Z,101359.72
2022-10-26T17:12:58.410Z,101360.78
2022-10-26T17:15:28.555Z,101367.25
2022-10-26T17:17:55.318Z,101362.69
2022-10-26T17:20:22.671Z,101365.97
2022-10-26T17:22:49.501Z,101369.94
2022-10-26T17:25:15.994Z,101374.69
2022-10-26T17:27:46.376Z,101375.75
2022-10-26T17:30:13.737Z,101375.56
2022-10-26T17:32:39.980Z,101385.97
2022-10-26T17:35:06.266Z,101395.69
2022-10-26T17:37:32.615Z,101394.63
2022-10-26T17:39:58.957Z,101400.03
2022-10-26T17:42:25.365Z,101403.78
2022-10-26T17:44:51.795Z,101401.09
2022-10-26T17:47:18.149Z,101407.53
2022-10-26T17:49:44.415Z,101402.16
2022-10-26T17:52:10.667Z,101415.63
2022-10-26T17:54:37.232Z,101426.44
2022-10-26T17:57:03.487Z,101423.72
2022-10-26T17:59:29.812Z,101423.72
2022-10-26T18:01:56.139Z,101425.38
2022-10-26T18:04:23.320Z,101433.69
2022-10-26T18:06:49.917Z,101434.13
2022-10-26T18:09:16.292Z,101430.19
2022-10-26T18:11:42.772Z,101442.00
2022-10-26T18:14:10.508Z,101435.19
2022-10-26T18:16:36.734Z,101436.81
2022-10-26T18:19:03.006Z,101445.19
2022-10-26T18:21:29.255Z,101436.03
2022-10-26T18:23:55.988Z,101443.91
2022-10-26T18:26:22.689Z,101441.41
2022-10-26T18:28:53.143Z,101444.13
2022-10-26T18:31:20.359Z,101445.19
2022-10-26T18:33:48.053Z,101452.44
2022-10-26T18:36:14.990Z,101450.56
2022-10-26T18:38:44.391Z,101453.25
2022-10-26T18:41:11.816Z,101453.25
2022-10-26T18:43:39.172Z,101453.25
2022-10-26T18:46:06.987Z,101450.78
2022-10-26T18:48:37.476Z,101454.53
2022-10-26T18:51:07.663Z,101458.81
2022-10-26T18:53:35.142Z,101461.09
2022-10-26T18:56:05.015Z,101459.47
2022-10-26T18:58:32.194Z,101462.38
2022-10-26T19:00:59.836Z,101463.44
2022-10-26T19:03:27.254Z,101470.72
2022-10-26T19:05:54.681Z,101473.66
2022-10-26T19:08:25.698Z,101464.50
2022-10-26T19:10:54.372Z,101470.94
2022-10-26T19:13:20.637Z,101474.66
2022-10-26T19:15:50.375Z,101483.38
2022-10-26T19:18:17.734Z,101478.81
2022-10-26T19:20:48.556Z,101488.78
2022-10-26T19:23:16.352Z,101485.25
2022-10-26T19:25:43.809Z,101488.16
2022-10-26T19:28:13.809Z,101493.56
2022-10-26T19:30:41.292Z,101498.94
2022-10-26T19:33:07.864Z,101503.09
2022-10-26T19:38:02.969Z,101501.44
2022-10-26T19:40:29.402Z,101523.84
2022-10-26T19:42:55.672Z,101515.97
2022-10-26T19:45:21.952Z,101514.09
2022-10-26T19:47:48.567Z,101521.00
2022-10-26T19:50:15.364Z,101530.72
2022-10-26T19:52:41.620Z,101521.00
2022-10-26T19:55:07.883Z,101530.50
2022-10-26T19:57:34.213Z,101531.09
2022-10-26T20:00:00.476Z,101532.38
2022-10-26T20:02:26.756Z,101534.84
2022-10-26T20:04:53.204Z,101537.75
2022-10-26T20:07:19.542Z,101538.38
2022-10-26T20:09:45.863Z,101541.31
2022-10-26T20:12:12.197Z,101544.00
2022-10-26T20:14:38.463Z,101544.22
2022-10-26T20:17:04.764Z,101545.47
2022-10-26T20:19:31.045Z,101540.91
2022-10-26T20:21:57.437Z,101540.69
2022-10-26T20:24:23.849Z,101543.16
2022-10-26T20:26:50.184Z,101543.16
2022-10-26T20:29:16.451Z,101552.09
2022-10-26T20:31:43.116Z,101553.56
2022-10-26T20:34:09.553Z,101556.28
2022-10-26T20:36:36.012Z,101560.84
2022-10-26T20:39:02.405Z,101560.41
2022-10-26T20:41:28.753Z,101558.13
2022-10-26T20:43:57.244Z,101552.53
2022-10-26T20:46:24.425Z,101553.56
2022-10-26T20:48:50.701Z,101557.69
2022-10-26T20:51:17.962Z,101558.97
2022-10-26T20:53:45.994Z,101558.75
2022-10-26T20:56:12.269Z,101565.78
2022-10-26T20:58:38.834Z,101567.06
2022-10-26T21:01:05.197Z,101560.25
2022-10-26T21:03:31.516Z,101571.03
2022-10-26T21:05:57.930Z,101567.28
2022-10-26T21:08:24.297Z,101574.53
2022-10-26T21:10:50.701Z,101576.44
2022-10-26T21:13:17.020Z,101577.47
2022-10-26T21:15:43.304Z,101576.44
2022-10-26T21:18:09.765Z,101578.50
2022-10-26T21:20:36.144Z,101574.53
2022-10-26T21:23:03.112Z,101572.88
2022-10-26T21:25:29.412Z,101585.56
2022-10-26T21:27:55.670Z,101579.13
2022-10-26T21:30:22.006Z,101586.59
2022-10-26T21:32:48.558Z,101585.78
2022-10-26T21:35:14.850Z,101591.19
2022-10-26T21:37:41.130Z,101592.00
2022-10-26T21:40:07.402Z,101592.00
2022-10-26T21:42:33.705Z,101597.59
2022-10-26T21:45:00.139Z,101596.56
2022-10-26T21:47:26.482Z,101599.50
2022-10-26T21:49:52.967Z,101593.88
2022-10-26T21:52:19.467Z,101601.75
2022-10-26T21:54:45.956Z,101594.91
2022-10-26T21:57:12.238Z,101596.78
2022-10-26T21:59:38.677Z,101601.75
2022-10-26T22:02:05.075Z,101604.66
2022-10-26T22:04:31.427Z,101606.75
2022-10-26T22:06:57.691Z,101608.16
2022-10-26T22:09:24.218Z,101600.53
2022-10-26T22:11:50.557Z,101602.19
2022-10-26T22:14:16.798Z,101605.94
2022-10-26T22:16:43.309Z,101597.00
2022-10-26T22:19:09.728Z,101608.84
2022-10-26T22:21:36.129Z,101610.72
2022-10-26T22:24:02.482Z,101618.59
2022-10-26T22:26:28.793Z,101618.78
2022-10-26T22:28:55.079Z,101622.53
2022-10-26T22:31:21.403Z,101626.88
2022-10-26T22:33:47.847Z,101623.75
2022-10-26T22:36:14.191Z,101621.91
2022-10-26T22:38:40.536Z,101632.28
2022-10-26T22:41:07.010Z,101631.44
2022-10-26T22:43:33.333Z,101627.50
2022-10-26T22:45:59.699Z,101623.13
2022-10-26T22:48:26.221Z,101623.13
2022-10-26T22:50:52.501Z,101629.59
2022-10-26T22:53:18.933Z,101620.44
2022-10-26T22:55:45.400Z,101624.19
2022-10-26T22:58:11.618Z,101627.72
2022-10-26T23:00:37.924Z,101637.69
2022-10-26T23:03:04.289Z,101637.69
2022-10-26T23:07:57.045Z,101637.88
2022-10-26T23:10:23.596Z,101647.88
2022-10-26T23:12:50.097Z,101651.59
2022-10-26T23:15:16.436Z,101649.53
2022-10-26T23:17:42.689Z,101652.22
2022-10-26T23:20:08.933Z,101651.00
2022-10-26T23:22:35.512Z,101654.06
2022-10-26T23:25:01.918Z,101661.34
2022-10-26T23:27:28.240Z,101654.28
2022-10-26T23:29:54.497Z,101656.59
2022-10-26T23:32:20.759Z,101658.03
2022-10-26T23:34:47.187Z,101654.28
2022-10-26T23:37:13.504Z,101657.66
2022-10-26T23:39:39.781Z,101647.25
2022-10-26T23:42:06.048Z,101659.09
2022-10-26T23:44:32.312Z,101660.13
2022-10-26T23:46:58.745Z,101663.84
2022-10-26T23:49:25.088Z,101670.50
2022-10-26T23:51:51.360Z,101677.13
2022-10-26T23:54:17.740Z,101682.53
2022-10-26T23:56:44.099Z,101694.16
2022-10-26T23:59:10.386Z,101685.44
